METAR-Meldungen aus der Umgebung

   
EDMO - Oberpfaffenhofen, Germany
Entfernung von der Station bis: SSO 18 km
Aktualisierung: 27-01-2021 17:50
Stark bewölkt  
Stark bewölkt  
   Wind: SSW 13 km/h
Wind: SSW 13 km/h
Temperatur: -1°C
Gefühlt: -5°C
Taupunkt: -3°C
Luftfeuchte: 86%
Luftdruck: 1013 hPa
Bewölkt: Mostly Cloudy
Sichtbarkeit: Mehr als 10 km
Bewölkung: Teilweise bewölkt 3500 ft,
Stark bewölkt 4100 ft
EDMO 271650Z 21007KT 9999 SCT035 BKN041 M01/M03 Q1013
ETSL - Lechfeld (ger-Af, Germany
Entfernung von der Station bis: WSW 23 km
Aktualisierung: 27-01-2021 18:20
Leichter Schneefall, Stark bewölkt  
Leichter Schneefall, Stark bewölkt  
   Wind: SSW 14.8 km/h
Wind: SSW 14.8 km/h
Temperatur: 0°C
Gefühlt: -4°C
Taupunkt: -3°C
Luftfeuchte: 80%
Luftdruck: 1013 hPa
Bewölkt: Mostly Cloudy
Sichtbarkeit: Mehr als 10 km
Bewölkung: Teilweise bewölkt 1000 ft,
Stark bewölkt 2000 ft
ETSL 271720Z 21008KT 9999 -SN SCT010 BKN020 M00/M03 Q1013 BLACKWHT
EDMA - Augsburg/Mulhaus, Germany
Entfernung von der Station bis: NW 30 km
Aktualisierung: 27-01-2021 18:20
Bewölkt  
Bewölkt  
   Wind: SW 11.1 km/h
Wind: SW 11.1 km/h
Temperatur: 0°C
Gefühlt: -3°C
Taupunkt: -2°C
Luftfeuchte: 87%
Luftdruck: 1013 hPa
Bewölkt: Overcast
Sichtbarkeit: 6 km
Bewölkung: Teilweise bewölkt 3300 ft,
Teilweise bewölkt 3800 ft,
Bewölkt 4700 ft
EDMA 271720Z 23006KT 6000 SCT033 SCT038 OVC047 M00/M02 Q1013
ETHA - Altenstadt/Schon, Germany
Entfernung von der Station bis: SSW 49 km
Aktualisierung: 27-01-2021 18:20
Leichter Schneefall, Bewölkt  
Leichter Schneefall, Bewölkt  
   Wind: Westen 25.9 km/h
Wind: Westen 25.9 km/h
Temperatur: 0°C
Gefühlt: -6°C
Taupunkt: -2°C
Luftfeuchte: 87%
Luftdruck: 1012 hPa
Bewölkt: Overcast
Sichtbarkeit: 6 km
Bewölkung: leicht bewölkt 1100 ft,
Bewölkt 2500 ft
ETHA 271720Z 26014KT 6000 -SN FEW011 OVC025 M00/M02 Q1012 BLACKWHT
EDDM - Munich-Flughafen, Germany
Entfernung von der Station bis: ONO 50 km
Aktualisierung: 27-01-2021 18:20
Bewölkt  
Bewölkt  
   Wind: SSW 9.3 km/h
Wind: SSW 9.3 km/h
Temperatur: -1°C
Gefühlt: -4°C
Taupunkt: -3°C
Luftfeuchte: 86%
Luftdruck: 1014 hPa
Bewölkt: Overcast
Sichtbarkeit: Mehr als 10 km
Bewölkung: leicht bewölkt 1400 ft,
Bewölkt 3700 ft
EDDM 271720Z 21005KT 9999 FEW014 OVC037 M01/M03 Q1014 R26L/290095 NOSIG
 

Script entwickelt von  Saratoga-weather.org Angepasst für das Template von  Weerstation Leuven